Time;durP1;ratioP1;P1;durP2;ratioP2;P2;SDS_P1;SDS_P2;PMS_P1;PMS_P2;Temp;Humidity;BMP_temperature;BMP_pressure;BME280_temperature;BME280_humidity;BME280_pressure;Samples;Min_cycle;Max_cycle;Signal;HPM_P1;HPM_P2
2022/02/05 00:02:16;;;;;;;15.20;3.55;;;6.40;99.50;;;;;;4956091;28;20043;-72
2022/02/05 00:04:43;;;;;;;14.13;3.35;;;6.20;99.50;;;;;;4956043;28;20043;-73
2022/02/05 00:07:10;;;;;;;16.63;3.78;;;6.30;99.50;;;;;;4956128;28;20055;-73
2022/02/05 00:14:58;;;;;;;12.77;3.40;;;6.20;99.60;;;;;;4955866;28;20043;-73
2022/02/05 00:32:57;;;;;;;15.35;3.55;;;6.40;99.80;;;;;;4955628;28;20533;-73
2022/02/05 00:39:53;;;;;;;15.80;5.05;;;6.40;99.40;;;;;;4955743;29;20382;-73
2022/02/05 00:42:30;;;;;;;12.68;4.10;;;6.50;99.30;;;;;;4955194;28;20055;-73
2022/02/05 00:44:56;;;;;;;14.57;4.35;;;6.50;99.40;;;;;;4955408;28;20036;-72
2022/02/05 00:47:23;;;;;;;12.18;4.80;;;6.40;99.30;;;;;;4955342;28;20043;-72
2022/02/05 00:49:54;;;;;;;12.80;4.85;;;6.40;99.00;;;;;;4955048;28;20507;-72
2022/02/05 00:52:20;;;;;;;11.38;3.83;;;6.50;99.10;;;;;;4954510;28;20180;-71
2022/02/05 00:54:50;;;;;;;14.50;4.28;;;6.50;98.90;;;;;;4955128;28;20102;-72
2022/02/05 00:59:54;;;;;;;8.60;3.70;;;6.50;98.90;;;;;;4954948;28;20059;-72
2022/02/05 01:02:19;;;;;;;10.05;3.75;;;6.50;98.60;;;;;;4954947;28;20190;-73
2022/02/05 01:04:45;;;;;;;6.50;3.20;;;6.50;98.60;;;;;;4955044;28;20504;-72
2022/02/05 01:07:11;;;;;;;8.68;3.75;;;6.40;98.70;;;;;;4970211;28;20110;-72
2022/02/05 01:09:36;;;;;;;8.77;3.67;;;6.50;98.60;;;;;;4954804;28;20039;-73
2022/02/05 01:12:04;;;;;;;13.45;4.07;;;6.50;98.70;;;;;;4970185;28;20032;-73
2022/02/05 01:14:40;;;;;;;10.52;4.18;;;6.40;98.60;;;;;;4954857;28;20043;-72
2022/02/05 01:17:09;;;;;;;7.00;3.57;;;6.40;98.60;;;;;;4954567;28;20163;-73
2022/02/05 01:22:16;;;;;;;11.68;4.60;;;6.40;98.70;;;;;;4954906;28;20048;-73
2022/02/05 01:24:44;;;;;;;14.90;4.82;;;6.40;98.70;;;;;;4954445;28;20047;-74
2022/02/05 01:27:14;;;;;;;12.25;4.75;;;6.40;98.90;;;;;;4954990;28;20019;-73
2022/02/05 01:30:00;;;;;;;15.43;5.25;;;6.30;99.20;;;;;;4954470;28;20437;-73
2022/02/05 01:32:28;;;;;;;13.82;4.90;;;6.30;99.20;;;;;;4954173;28;20032;-73
2022/02/05 01:35:24;;;;;;;12.00;5.07;;;6.40;99.20;;;;;;4954324;28;20047;-73
2022/02/05 01:51:41;;;;;;;16.00;5.95;;;6.40;99.30;;;;;;4954581;29;20062;-71
2022/02/05 01:54:29;;;;;;;21.85;6.25;;;6.40;99.40;;;;;;4953898;28;20072;-74
2022/02/05 01:57:11;;;;;;;13.73;5.18;;;6.40;99.30;;;;;;4954206;28;20667;-72
2022/02/05 02:05:26;;;;;;;20.52;5.15;;;6.60;99.10;;;;;;4953745;28;20131;-72
2022/02/05 02:11:02;;;;;;;18.58;4.88;;;6.60;99.10;;;;;;4953908;28;20040;-72
2022/02/05 02:16:45;;;;;;;13.70;4.53;;;6.60;99.00;;;;;;4953700;28;20071;-72
2022/02/05 02:19:33;;;;;;;15.50;4.68;;;6.60;98.90;;;;;;4953550;28;20034;-73
2022/02/05 02:22:13;;;;;;;11.73;4.90;;;6.60;98.80;;;;;;4953501;28;20027;-72
2022/02/05 02:24:56;;;;;;;19.42;4.45;;;6.60;98.70;;;;;;4953278;28;20110;-73
2022/02/05 02:27:38;;;;;;;15.82;4.15;;;6.60;98.70;;;;;;4968800;28;20062;-73
2022/02/05 02:32:36;;;;;;;17.02;3.63;;;6.60;98.80;;;;;;4953367;28;20271;-74
2022/02/05 02:35:08;;;;;;;17.70;4.40;;;6.60;98.50;;;;;;4951117;28;20130;-74
2022/02/05 02:37:57;;;;;;;16.10;4.30;;;6.50;98.50;;;;;;4934371;29;20054;-73
2022/02/05 02:42:58;;;;;;;16.05;3.83;;;6.50;98.70;;;;;;4933733;28;20088;-72
2022/02/05 02:45:23;;;;;;;17.55;4.20;;;6.50;98.80;;;;;;4934522;29;20046;-72
2022/02/05 02:47:49;;;;;;;15.82;4.60;;;6.60;98.80;;;;;;4933901;28;20474;-72
2022/02/05 02:58:34;;;;;;;13.65;4.22;;;6.60;99.10;;;;;;4933805;28;20038;-73
2022/02/05 03:01:01;;;;;;;10.10;3.25;;;6.50;99.00;;;;;;4933644;28;20119;-72
2022/02/05 03:03:27;;;;;;;17.20;3.42;;;6.60;99.00;;;;;;4949245;29;20030;-72
2022/02/05 03:05:54;;;;;;;19.33;3.47;;;6.60;98.90;;;;;;4933613;28;20042;-72
2022/02/05 03:08:19;;;;;;;13.45;3.67;;;6.60;98.70;;;;;;4933949;29;20027;-72
2022/02/05 03:10:45;;;;;;;21.42;3.55;;;6.60;98.70;;;;;;4948696;28;20028;-72
2022/02/05 03:13:11;;;;;;;13.55;4.40;;;6.60;98.60;;;;;;4933598;28;20488;-72
2022/02/05 03:15:42;;;;;;;15.75;3.72;;;6.50;98.60;;;;;;4937510;28;20067;-72
2022/02/05 03:18:13;;;;;;;10.95;3.45;;;6.60;98.70;;;;;;4938111;29;20035;-72
2022/02/05 03:20:39;;;;;;;20.80;3.90;;;6.60;98.90;;;;;;4952580;28;20582;-72
2022/02/05 03:23:05;;;;;;;9.45;3.00;;;6.60;98.70;;;;;;4937428;28;20039;-72
2022/02/05 03:25:32;;;;;;;12.80;4.15;;;6.60;98.80;;;;;;4937491;28;20099;-73
2022/02/05 03:28:00;;;;;;;19.45;3.78;;;6.60;98.70;;;;;;4952344;28;20032;-74
2022/02/05 03:30:25;;;;;;;12.55;3.35;;;6.60;98.80;;;;;;4937744;29;20395;-74
2022/02/05 03:32:51;;;;;;;10.32;2.95;;;6.60;98.70;;;;;;4937434;28;20047;-72
2022/02/05 03:35:17;;;;;;;11.25;3.00;;;6.60;98.60;;;;;;4937501;28;20134;-73
2022/02/05 03:37:43;;;;;;;17.17;3.80;;;6.60;98.60;;;;;;4952308;28;20566;-73
2022/02/05 03:40:09;;;;;;;10.80;2.72;;;6.50;98.60;;;;;;4937320;28;20040;-73
2022/02/05 03:42:35;;;;;;;16.17;3.40;;;6.50;98.70;;;;;;4937523;29;20278;-73
2022/02/05 03:45:05;;;;;;;14.38;3.22;;;6.50;98.80;;;;;;4937592;29;20028;-73
2022/02/05 03:47:33;;;;;;;14.02;3.33;;;6.50;98.70;;;;;;4937149;28;20028;-73
2022/02/05 03:49:59;;;;;;;13.40;3.20;;;6.50;98.60;;;;;;4937166;28;20050;-72
2022/02/05 03:52:25;;;;;;;19.45;3.60;;;6.50;98.40;;;;;;4937243;28;20409;-73
2022/02/05 03:54:50;;;;;;;20.52;3.15;;;6.50;98.50;;;;;;4937074;28;20117;-72
2022/02/05 03:57:16;;;;;;;13.82;3.20;;;6.50;98.40;;;;;;4937446;29;20031;-72
2022/02/05 03:59:42;;;;;;;11.55;2.97;;;6.60;98.50;;;;;;4936988;28;20034;-72
2022/02/05 04:02:07;;;;;;;12.10;2.95;;;6.50;98.40;;;;;;4936921;29;20046;-71
2022/02/05 04:04:33;;;;;;;8.52;2.90;;;6.50;98.40;;;;;;4936789;28;20459;-71
2022/02/05 04:06:59;;;;;;;7.80;3.15;;;6.50;98.30;;;;;;4936925;28;20032;-72
2022/02/05 04:09:30;;;;;;;16.23;3.13;;;6.50;98.20;;;;;;4937236;29;20034;-71
2022/02/05 04:17:05;;;;;;;12.45;3.60;;;6.50;98.20;;;;;;4936854;28;20047;-72
2022/02/05 04:19:31;;;;;;;19.70;3.15;;;6.40;98.40;;;;;;4936827;28;20024;-73
2022/02/05 04:21:57;;;;;;;9.93;2.50;;;6.40;98.20;;;;;;4951785;28;20040;-74
2022/02/05 04:24:23;;;;;;;15.55;2.42;;;6.50;98.10;;;;;;4936989;29;20086;-73
2022/02/05 04:26:48;;;;;;;9.30;2.30;;;6.40;98.10;;;;;;4941816;28;20032;-73
2022/02/05 04:29:14;;;;;;;12.88;3.05;;;6.40;98.10;;;;;;4958227;28;20451;-73
2022/02/05 04:31:40;;;;;;;16.60;3.25;;;6.40;98.10;;;;;;4943862;28;20024;-73
2022/02/05 04:34:06;;;;;;;18.05;2.90;;;6.30;98.20;;;;;;4943043;28;20424;-75
2022/02/05 04:36:35;;;;;;;8.15;2.90;;;6.30;98.30;;;;;;4943669;28;20106;-73
2022/02/05 04:39:07;;;;;;;13.27;3.33;;;6.30;98.40;;;;;;4942023;29;20414;-73
2022/02/05 04:41:43;;;;;;;17.48;3.70;;;6.30;98.40;;;;;;4941144;28;20473;-73
2022/02/05 04:46:58;;;;;;;16.25;3.47;;;6.20;98.60;;;;;;4938527;28;20491;-73
2022/02/05 04:52:28;;;;;;;16.25;3.67;;;6.30;98.50;;;;;;4937690;28;20094;-74
2022/02/05 04:58:31;;;;;;;9.32;3.05;;;6.30;98.50;;;;;;4936296;28;20043;-73
2022/02/05 05:00:43;;;;;;;17.52;4.57;;;6.30;98.50;;;;;;4936585;29;20036;-73
2022/02/05 05:21:39;;;;;;;17.38;3.75;;;6.10;98.70;;;;;;4935890;28;20024;-72
2022/02/05 05:24:05;;;;;;;16.27;3.45;;;6.10;98.70;;;;;;4935806;29;20028;-73
2022/02/05 05:26:30;;;;;;;10.98;3.80;;;6.10;98.70;;;;;;4950298;28;20059;-73
2022/02/05 05:28:56;;;;;;;12.75;2.80;;;6.10;98.70;;;;;;4935368;28;20031;-73
2022/02/05 05:31:22;;;;;;;15.20;3.38;;;6.20;98.70;;;;;;4950297;28;20072;-73
2022/02/05 05:33:47;;;;;;;13.40;2.95;;;6.20;98.60;;;;;;4935274;28;20058;-74
2022/02/05 05:36:13;;;;;;;15.25;3.28;;;6.20;98.50;;;;;;4935248;29;20036;-73
2022/02/05 05:38:38;;;;;;;8.93;2.75;;;6.20;98.40;;;;;;4934902;28;20023;-73
2022/02/05 05:41:04;;;;;;;14.80;3.10;;;6.20;98.40;;;;;;4934955;28;20485;-73
2022/02/05 05:48:31;;;;;;;6.90;3.05;;;6.20;98.40;;;;;;4935647;29;20059;-72
2022/02/05 05:50:59;;;;;;;6.13;2.80;;;6.10;98.20;;;;;;4935006;29;20051;-71
2022/02/05 05:53:26;;;;;;;12.05;2.78;;;6.10;98.30;;;;;;4934693;28;20415;-73
2022/02/05 05:55:52;;;;;;;13.32;2.67;;;6.10;98.30;;;;;;4934652;28;20426;-72
2022/02/05 05:58:19;;;;;;;17.92;2.83;;;6.00;98.30;;;;;;4934946;29;20226;-72
2022/02/05 06:00:45;;;;;;;17.98;3.20;;;6.10;98.20;;;;;;4934841;28;20023;-72
2022/02/05 06:03:11;;;;;;;7.47;2.72;;;6.10;98.30;;;;;;4935273;29;20628;-73
2022/02/05 06:05:37;;;;;;;16.48;2.90;;;6.10;98.60;;;;;;4934715;28;20036;-72
2022/02/05 06:08:04;;;;;;;10.23;3.05;;;6.00;99.20;;;;;;4949512;28;20039;-72
2022/02/05 06:10:30;;;;;;;16.92;3.47;;;5.90;99.70;;;;;;4934714;28;20035;-73
2022/02/05 06:12:56;;;;;;;10.95;3.42;;;6.00;99.90;;;;;;4934429;28;20031;-72
2022/02/05 06:15:22;;;;;;;17.33;3.30;;;5.90;99.90;;;;;;4934938;29;20046;-72
2022/02/05 06:17:50;;;;;;;17.85;3.63;;;6.00;99.70;;;;;;4934724;28;20044;-72
2022/02/05 06:20:15;;;;;;;11.80;3.00;;;5.90;99.80;;;;;;4934540;28;20040;-73
2022/02/05 06:22:41;;;;;;;13.57;3.42;;;6.00;99.60;;;;;;4934442;28;20475;-73
2022/02/05 06:25:07;;;;;;;18.52;3.95;;;6.00;99.80;;;;;;4934217;28;20110;-73
2022/02/05 06:27:33;;;;;;;8.52;3.70;;;5.90;99.90;;;;;;4934115;28;20241;-72
2022/02/05 06:29:58;;;;;;;13.77;3.70;;;5.90;99.90;;;;;;4934776;29;20358;-72
2022/02/05 06:32:27;;;;;;;14.88;4.15;;;5.90;99.90;;;;;;4934026;28;20032;-72
2022/02/05 06:34:55;;;;;;;14.55;4.38;;;6.00;99.90;;;;;;4949430;28;20048;-72
2022/02/05 06:37:21;;;;;;;19.15;4.88;;;5.90;99.90;;;;;;4934225;28;20524;-73
2022/02/05 06:39:46;;;;;;;13.68;3.75;;;6.00;99.90;;;;;;4934006;28;20071;-72
2022/02/05 06:42:12;;;;;;;14.25;3.65;;;6.10;99.90;;;;;;4934184;29;20052;-73
2022/02/05 06:44:37;;;;;;;12.18;4.50;;;6.10;99.90;;;;;;4948756;28;20110;-73
2022/02/05 06:47:03;;;;;;;17.45;4.68;;;6.20;99.70;;;;;;4948997;28;20035;-73
2022/02/05 06:49:30;;;;;;;14.48;3.70;;;6.20;99.50;;;;;;4933999;28;20032;-76
2022/02/05 06:51:57;;;;;;;14.45;3.60;;;6.20;99.40;;;;;;4934103;28;20038;-74
2022/02/05 06:54:23;;;;;;;24.02;4.43;;;6.30;99.40;;;;;;4934466;29;20035;-74
2022/02/05 06:56:48;;;;;;;13.05;4.13;;;6.30;99.40;;;;;;4934051;28;20032;-75
2022/02/05 06:59:14;;;;;;;11.20;3.67;;;6.30;99.20;;;;;;4933854;28;20039;-74
2022/02/05 07:01:39;;;;;;;12.95;3.70;;;6.20;99.10;;;;;;4948816;28;20352;-73
2022/02/05 07:04:06;;;;;;;15.77;3.75;;;6.20;99.00;;;;;;4933860;28;20028;-72
2022/02/05 07:06:33;;;;;;;20.23;4.25;;;6.20;99.00;;;;;;4933728;28;20031;-74
2022/02/05 07:08:58;;;;;;;19.75;4.32;;;6.20;98.90;;;;;;4934245;29;20045;-73
2022/02/05 07:11:24;;;;;;;19.75;4.10;;;6.20;98.90;;;;;;4933864;28;20070;-73
2022/02/05 07:13:55;;;;;;;16.58;4.30;;;6.20;98.90;;;;;;4933786;28;20131;-73
2022/02/05 07:16:27;;;;;;;9.65;3.80;;;6.20;98.80;;;;;;4933790;28;20040;-73
2022/02/05 07:19:19;;;;;;;16.20;4.05;;;6.20;98.70;;;;;;4933674;28;20039;-73
2022/02/05 07:21:51;;;;;;;14.88;3.42;;;6.30;98.80;;;;;;4933707;28;20044;-72
2022/02/05 07:24:31;;;;;;;16.95;3.17;;;6.30;98.60;;;;;;4934156;29;20019;-73
2022/02/05 07:29:44;;;;;;;23.33;5.32;;;6.20;98.50;;;;;;4933655;28;20473;-74
2022/02/05 07:32:13;;;;;;;21.85;4.35;;;6.10;98.50;;;;;;4933290;29;20115;-73
2022/02/05 07:34:38;;;;;;;20.70;4.65;;;6.20;98.70;;;;;;4933962;28;20046;-73
2022/02/05 07:37:05;;;;;;;18.60;3.42;;;6.10;98.60;;;;;;4933776;28;20032;-74
2022/02/05 07:39:39;;;;;;;14.10;3.92;;;6.20;98.70;;;;;;4933811;28;20461;-73
2022/02/05 07:42:05;;;;;;;12.85;4.07;;;6.10;98.70;;;;;;4933985;29;20039;-71
2022/02/05 07:44:31;;;;;;;16.15;3.90;;;6.10;98.90;;;;;;4933749;28;20111;-72
2022/02/05 07:47:00;;;;;;;17.55;4.32;;;6.20;98.80;;;;;;4933829;28;20120;-72
2022/02/05 07:49:25;;;;;;;15.25;4.43;;;6.30;98.70;;;;;;4933680;28;20035;-73
2022/02/05 07:51:51;;;;;;;20.63;4.88;;;6.20;98.70;;;;;;4933608;28;20115;-74
2022/02/05 07:54:17;;;;;;;14.70;4.50;;;6.30;98.70;;;;;;4933147;29;20035;-72
2022/02/05 07:56:44;;;;;;;18.17;4.03;;;6.20;98.50;;;;;;4933893;28;20127;-77
2022/02/05 07:59:11;;;;;;;17.23;4.37;;;6.20;98.60;;;;;;4933808;28;20039;-75
2022/02/05 08:01:37;;;;;;;14.50;3.88;;;6.20;98.70;;;;;;4936013;29;20070;-77
2022/02/05 08:04:03;;;;;;;19.27;3.80;;;6.20;98.80;;;;;;4937389;28;20056;-77
2022/02/05 08:06:29;;;;;;;19.38;4.07;;;6.30;99.00;;;;;;4937990;29;20028;-72
2022/02/05 08:08:59;;;;;;;14.48;4.07;;;6.40;98.80;;;;;;4956420;28;20035;-73
2022/02/05 08:11:36;;;;;;;18.35;3.67;;;6.40;99.10;;;;;;4956155;28;20035;-72
2022/02/05 08:14:07;;;;;;;17.38;4.60;;;6.50;99.30;;;;;;4971266;28;20417;-73
2022/02/05 08:17:00;;;;;;;16.35;4.28;;;6.50;99.30;;;;;;4956315;28;20118;-73
2022/02/05 08:19:18;;;;;;;19.23;4.78;;;6.40;99.40;;;;;;4956136;28;20035;-72
2022/02/05 08:21:44;;;;;;;12.43;4.18;;;6.50;99.50;;;;;;4956002;28;20446;-74
2022/02/05 08:24:10;;;;;;;12.90;3.97;;;6.50;99.60;;;;;;4971515;28;20429;-73
2022/02/05 08:26:37;;;;;;;12.63;4.03;;;6.50;99.80;;;;;;4955752;28;20469;-74
2022/02/05 08:29:03;;;;;;;18.80;4.53;;;6.50;99.90;;;;;;4955835;28;20472;-74
2022/02/05 08:31:29;;;;;;;20.40;4.20;;;6.50;99.90;;;;;;4955929;28;20130;-76
2022/02/05 08:33:55;;;;;;;18.23;3.92;;;6.50;99.80;;;;;;4955660;28;20568;-75
2022/02/05 08:36:23;;;;;;;14.40;3.95;;;6.50;99.80;;;;;;4956289;28;20023;-76
2022/02/05 08:38:51;;;;;;;12.02;4.22;;;6.60;99.80;;;;;;4954040;28;20031;-75
2022/02/05 08:41:16;;;;;;;15.23;3.97;;;6.70;99.60;;;;;;4936402;28;20044;-74
2022/02/05 08:43:42;;;;;;;14.43;4.13;;;6.50;99.30;;;;;;4936354;28;20050;-74
2022/02/05 08:46:08;;;;;;;15.40;3.97;;;6.60;99.70;;;;;;4936395;28;20023;-73
2022/02/05 08:48:34;;;;;;;14.90;4.32;;;6.50;99.40;;;;;;4936522;28;20035;-70
2022/02/05 08:51:00;;;;;;;16.35;4.25;;;6.50;99.50;;;;;;4936887;29;20028;-72
2022/02/05 08:53:25;;;;;;;19.48;4.50;;;6.70;99.90;;;;;;4936113;28;20044;-77
2022/02/05 08:55:53;;;;;;;15.45;4.03;;;6.60;99.30;;;;;;4936458;28;20035;-75
2022/02/05 08:58:20;;;;;;;18.63;4.65;;;6.60;99.00;;;;;;4936410;28;20107;-71
2022/02/05 09:00:54;;;;;;;14.88;4.22;;;6.50;99.10;;;;;;4936418;28;20357;-72
2022/02/05 09:03:33;;;;;;;24.23;3.92;;;6.60;99.00;;;;;;4936799;29;20449;-74
2022/02/05 09:06:01;;;;;;;19.38;4.32;;;6.70;98.80;;;;;;4951289;28;20054;-78
2022/02/05 09:08:32;;;;;;;22.60;4.45;;;6.80;98.70;;;;;;4936399;28;20367;-75
2022/02/05 09:16:10;;;;;;;16.38;3.95;;;7.00;98.20;;;;;;4936145;28;20447;-78
2022/02/05 09:18:37;;;;;;;17.13;4.18;;;7.00;98.60;;;;;;4937012;28;20028;-78
2022/02/05 09:21:03;;;;;;;16.13;4.13;;;7.40;99.90;;;;;;4935510;29;20043;-78
2022/02/05 09:23:28;;;;;;;18.52;3.58;;;7.70;99.20;;;;;;4935535;29;20122;-83
2022/02/05 09:25:54;;;;;;;18.98;3.83;;;7.80;98.30;;;;;;4936407;28;20036;-77
2022/02/05 09:28:21;;;;;;;15.95;3.03;;;7.90;98.30;;;;;;4935868;28;20063;-77
2022/02/05 09:31:02;;;;;;;16.30;3.70;;;8.00;97.80;;;;;;4935435;28;20586;-80
2022/02/05 09:33:28;;;;;;;18.25;3.60;;;8.40;97.50;;;;;;4936160;29;20114;-78
2022/02/05 09:35:54;;;;;;;19.75;3.60;;;8.60;97.90;;;;;;4935857;28;20040;-78
2022/02/05 09:38:20;;;;;;;15.45;3.13;;;9.00;97.40;;;;;;4935895;28;20083;-77
2022/02/05 09:40:45;;;;;;;17.05;3.33;;;8.90;96.60;;;;;;4950626;28;20425;-72
2022/02/05 09:43:12;;;;;;;16.63;3.00;;;8.80;96.70;;;;;;4935245;28;20373;-73
2022/02/05 09:45:38;;;;;;;18.67;2.80;;;9.10;96.50;;;;;;4935392;28;20020;-74
2022/02/05 09:48:07;;;;;;;17.42;4.15;;;9.20;96.10;;;;;;4936086;29;20043;-74
2022/02/05 09:50:35;;;;;;;11.38;2.83;;;9.10;95.70;;;;;;4935372;28;20036;-75
2022/02/05 09:53:13;;;;;;;16.35;4.03;;;9.10;95.90;;;;;;4933883;29;20035;-71
2022/02/05 09:55:39;;;;;;;14.48;2.88;;;8.60;95.00;;;;;;4934978;28;20028;-71
2022/02/05 09:58:05;;;;;;;15.43;3.10;;;8.40;95.40;;;;;;4935325;28;20453;-79
2022/02/05 10:00:31;;;;;;;17.02;3.13;;;8.60;95.80;;;;;;4935686;28;20111;-81
2022/02/05 10:02:59;;;;;;;17.05;3.25;;;8.40;95.10;;;;;;4934611;29;20024;-77
2022/02/05 10:05:31;;;;;;;18.42;3.17;;;8.20;95.60;;;;;;4950425;28;20044;-76
2022/02/05 10:08:06;;;;;;;21.55;4.03;;;8.00;95.30;;;;;;4935034;28;20040;-78
2022/02/05 10:10:43;;;;;;;16.70;3.50;;;7.90;95.90;;;;;;4935200;28;20076;-76
2022/02/05 10:13:12;;;;;;;14.23;3.10;;;8.00;95.80;;;;;;4949953;28;20040;-79
2022/02/05 10:15:40;;;;;;;18.70;3.72;;;8.00;95.40;;;;;;4934316;28;20028;-76
2022/02/05 10:18:07;;;;;;;17.67;3.40;;;8.20;95.60;;;;;;4935710;29;20020;-78
2022/02/05 10:20:33;;;;;;;13.77;3.05;;;8.40;95.90;;;;;;4935233;28;20036;-78
2022/02/05 10:23:10;;;;;;;13.20;3.63;;;8.20;95.00;;;;;;4935274;28;20032;-80
2022/02/05 10:25:37;;;;;;;18.08;3.42;;;8.50;96.60;;;;;;4934774;28;20028;-87
2022/02/05 10:28:12;;;;;;;14.20;3.88;;;8.60;96.00;;;;;;4935616;28;20035;-84
2022/02/05 10:30:52;;;;;;;17.98;2.90;;;8.90;95.40;;;;;;4934946;28;20019;-82
2022/02/05 10:33:29;;;;;;;13.45;2.58;;;9.00;95.30;;;;;;4935839;29;20363;-83
2022/02/05 10:36:07;;;;;;;12.77;2.97;;;9.20;94.90;;;;;;4934706;29;20046;-79
2022/02/05 10:43:57;;;;;;;21.35;3.47;;;10.40;92.80;;;;;;4934424;28;20367;-73
2022/02/05 10:46:38;;;;;;;17.10;2.78;;;10.50;92.10;;;;;;4934292;28;20036;-72
2022/02/05 10:49:04;;;;;;;13.05;2.70;;;10.70;91.60;;;;;;4934321;28;20050;-75
2022/02/05 10:51:47;;;;;;;20.38;2.55;;;10.50;91.00;;;;;;4935287;28;20028;-72
2022/02/05 10:54:34;;;;;;;16.80;3.20;;;10.30;91.10;;;;;;4934928;29;20103;-73
2022/02/05 10:57:13;;;;;;;11.88;2.38;;;10.40;90.80;;;;;;4934978;29;20035;-72
2022/02/05 11:00:10;;;;;;;;;;;10.20;90.50;;;;;;4934315;28;20036;-79
2022/02/05 11:05:32;;;;;;;;;;;11.00;90.00;;;;;;4934655;28;19922;-74
2022/02/05 11:07:58;;;;;;;;;;;11.60;88.50;;;;;;4935960;28;19941;-72
2022/02/05 11:13:16;;;;;;;;;;;11.70;88.20;;;;;;4934588;28;19965;-71
2022/02/05 11:20:58;;;;;;;;;;;11.50;85.90;;;;;;4934271;29;20005;-72
2022/02/05 11:23:26;;;;;;;;;;;11.10;85.70;;;;;;4934224;28;20388;-72
2022/02/05 11:25:52;;;;;;;;;;;10.80;85.70;;;;;;4934048;28;20031;-73
2022/02/05 11:28:37;;;;;;;;;;;10.60;85.70;;;;;;4933970;28;20347;-75
2022/02/05 11:31:13;;;;;;;;;;;10.30;86.60;;;;;;4932775;29;20009;-73
2022/02/05 11:33:39;;;;;;;;;;;10.30;87.10;;;;;;4948731;28;19949;-73
2022/02/05 11:38:44;;;;;;;;;;;10.00;88.10;;;;;;4937745;28;19918;-74
2022/02/05 11:41:23;;;;;;;;;;;10.30;87.70;;;;;;4937517;28;19910;-75
2022/02/05 11:44:09;;;;;;;;;;;10.40;87.50;;;;;;4937703;28;19915;-77
2022/02/05 11:46:35;;;;;;;;;;;10.70;86.80;;;;;;4936928;29;19965;-76
2022/02/05 11:49:04;;;;;;;;;;;10.60;85.90;;;;;;4937492;28;19946;-73
2022/02/05 11:51:31;;;;;;;;;;;10.40;85.50;;;;;;4937606;28;19907;-75
2022/02/05 11:53:59;;;;;;;;;;;9.90;86.80;;;;;;4952639;28;19986;-73
2022/02/05 11:56:37;;;;;;;;;;;9.50;88.80;;;;;;4936334;29;20316;-75
2022/02/05 11:59:03;;;;;;;;;;;9.70;90.00;;;;;;4937680;28;19925;-73
2022/02/05 12:01:36;;;;;;;;;;;9.80;88.40;;;;;;4936353;29;20286;-73
2022/02/05 12:04:09;;;;;;;;;;;9.50;88.10;;;;;;4937285;28;20001;-74
2022/02/05 12:06:48;;;;;;;;;;;9.20;88.40;;;;;;4937275;28;19933;-77
2022/02/05 12:09:43;;;;;;;;;;;9.20;89.90;;;;;;4937887;29;19903;-76
2022/02/05 12:12:24;;;;;;;;;;;9.10;90.00;;;;;;4929063;29;19911;-77
2022/02/05 12:15:11;;;;;;;;;;;8.80;90.50;;;;;;4937450;28;19914;-77
2022/02/05 12:18:07;;;;;;;;;;;8.90;90.80;;;;;;4937327;28;19921;-76
2022/02/05 12:26:17;;;;;;;;;;;9.40;90.60;;;;;;4937298;28;19911;-74
2022/02/05 12:28:44;;;;;;;;;;;9.40;90.70;;;;;;4936326;29;19914;-77
2022/02/05 12:31:19;;;;;;;;;;;9.20;90.30;;;;;;4937095;28;19910;-76
2022/02/05 12:33:45;;;;;;;;;;;9.20;90.70;;;;;;4935797;28;19915;-74
2022/02/05 12:36:13;;;;;;;;;;;9.20;90.50;;;;;;4952081;28;20298;-72
2022/02/05 12:38:40;;;;;;;;;;;9.00;90.10;;;;;;4936880;28;19921;-75
2022/02/05 12:41:06;;;;;;;;;;;8.90;90.30;;;;;;4935377;29;19966;-75
2022/02/05 12:43:48;;;;;;;;;;;8.90;90.50;;;;;;4936625;28;19919;-74
2022/02/05 12:46:13;;;;;;;;;;;8.90;90.30;;;;;;4936571;28;19919;-77
2022/02/05 12:48:39;;;;;;;;;;;9.00;90.30;;;;;;4951880;28;19926;-79
2022/02/05 12:51:05;;;;;;;;;;;9.00;90.00;;;;;;4937101;29;19899;-75
2022/02/05 12:53:39;;;;;;;;;;;8.70;89.90;;;;;;4936568;28;20005;-77
2022/02/05 12:56:12;;;;;;;;;;;8.80;90.10;;;;;;4951468;28;19910;-76
2022/02/05 12:59:01;;;;;;;;;;;8.50;89.60;;;;;;4935631;29;19921;-71
2022/02/05 13:01:27;;;;;;;;;;;8.50;90.10;;;;;;4936596;28;19921;-77
2022/02/05 13:04:08;;;;;;;;;;;8.60;90.30;;;;;;4936570;28;19911;-76
2022/02/05 13:06:34;;;;;;;;;;;8.60;90.50;;;;;;4936447;28;20363;-77
2022/02/05 13:08:59;;;;;;;;;;;8.50;90.60;;;;;;4936944;29;20211;-75
2022/02/05 13:11:29;;;;;;;;;;;8.70;90.70;;;;;;4936549;29;20359;-77
2022/02/05 13:13:55;;;;;;;;;;;8.60;90.60;;;;;;4936339;28;19915;-76
2022/02/05 13:16:21;;;;;;;;;;;8.60;90.70;;;;;;4936415;28;20305;-75
2022/02/05 13:19:02;;;;;;;;;;;8.60;90.80;;;;;;4944334;28;20345;-77
2022/02/05 13:27:10;;;;;;;;;;;8.70;90.70;;;;;;4955502;28;19922;-77
2022/02/05 13:29:44;;;;;;;;;;;8.90;90.60;;;;;;4955423;28;19918;-76
2022/02/05 13:35:02;;;;;;;;;;;8.80;89.90;;;;;;4955433;28;19925;-77
2022/02/05 13:37:32;;;;;;;;;;;8.70;89.20;;;;;;4955339;28;19914;-76
2022/02/05 13:40:01;;;;;;;;;;;8.70;89.60;;;;;;4955201;28;19941;-77
2022/02/05 13:42:30;;;;;;;;;;;8.70;89.30;;;;;;4955438;28;19918;-78
2022/02/05 13:44:59;;;;;;;;;;;8.90;89.40;;;;;;4955233;28;19918;-79
2022/02/05 13:47:29;;;;;;;;;;;8.70;88.40;;;;;;4954929;28;20034;-76
2022/02/05 13:50:27;;;;;;;;;;;8.70;88.40;;;;;;4970367;28;19925;-78
2022/02/05 13:52:54;;;;;;;;;;;8.80;88.70;;;;;;4953862;28;19921;-77
2022/02/05 13:55:20;;;;;;;;;;;8.70;88.50;;;;;;4970315;28;20005;-77
2022/02/05 13:57:59;;;;;;;;;;;8.70;88.40;;;;;;4954334;28;19990;-77
2022/02/05 14:00:36;;;;;;;;;;;8.50;88.10;;;;;;4970454;28;20371;-77
2022/02/05 14:03:03;;;;;;;;;;;8.60;88.80;;;;;;4969855;28;19914;-77
2022/02/05 14:05:28;;;;;;;;;;;8.60;88.60;;;;;;4955189;28;19910;-79
2022/02/05 14:07:54;;;;;;;;;;;8.60;88.30;;;;;;4955104;28;19914;-78
2022/02/05 14:10:20;;;;;;;;;;;8.50;88.50;;;;;;4955172;28;19921;-79
2022/02/05 14:12:56;;;;;;;;;;;8.50;88.80;;;;;;4969745;28;19920;-77
2022/02/05 14:15:23;;;;;;;;;;;8.50;89.30;;;;;;4955605;28;19917;-80
2022/02/05 14:18:03;;;;;;;;;;;8.60;89.40;;;;;;4969906;28;20246;-76
2022/02/05 14:20:30;;;;;;;;;;;8.50;89.50;;;;;;4969656;28;20005;-78
2022/02/05 14:23:04;;;;;;;;;;;8.40;89.10;;;;;;4955100;28;19918;-79
2022/02/05 14:25:34;;;;;;;;;;;8.50;89.50;;;;;;4954609;28;20311;-80
2022/02/05 14:28:24;;;;;;;;;;;8.50;89.20;;;;;;4969847;28;19911;-79
2022/02/05 14:31:31;;;;;;;;;;;8.50;89.30;;;;;;4969970;28;19929;-78
2022/02/05 14:36:22;;;;;;;;;;;8.40;90.00;;;;;;4954889;28;19906;-77
2022/02/05 14:41:32;;;;;;;;;;;8.50;90.20;;;;;;4954331;28;19969;-77
2022/02/05 14:43:58;;;;;;;;;;;8.50;90.20;;;;;;4969763;28;20476;-80
2022/02/05 14:46:23;;;;;;;;;;;8.40;90.20;;;;;;4969350;28;19926;-77
2022/02/05 14:48:49;;;;;;;;;;;8.30;90.40;;;;;;4968835;28;19919;-83
2022/02/05 14:51:14;;;;;;;;;;;8.30;91.00;;;;;;4969395;28;19906;-77
2022/02/05 14:53:40;;;;;;;;;;;8.40;90.60;;;;;;4953802;28;19926;-76
2022/02/05 14:56:05;;;;;;;;;;;8.40;90.60;;;;;;4953794;28;20344;-78
2022/02/05 14:58:31;;;;;;;;;;;8.30;90.90;;;;;;4968604;28;19933;-77
2022/02/05 15:00:56;;;;;;;;;;;8.50;90.90;;;;;;4953565;28;19922;-77
2022/02/05 15:03:22;;;;;;;;;;;8.40;90.70;;;;;;4953922;28;19977;-78
2022/02/05 15:05:49;;;;;;;;;;;8.50;90.60;;;;;;4968413;28;19914;-77
2022/02/05 15:08:15;;;;;;;;;;;8.50;90.70;;;;;;4953448;28;19918;-77
2022/02/05 15:10:40;;;;;;;;;;;8.40;90.50;;;;;;4952607;28;19941;-77
2022/02/05 15:13:06;;;;;;;;;;;8.30;90.50;;;;;;4953711;28;20542;-77
2022/02/05 15:15:32;;;;;;;;;;;8.30;90.50;;;;;;4953550;28;20321;-76
2022/02/05 15:17:59;;;;;;;;;;;8.40;90.50;;;;;;4968731;28;19918;-76
2022/02/05 15:20:24;;;;;;;;;;;8.40;90.40;;;;;;4953463;28;19914;-77
2022/02/05 15:22:50;;;;;;;;;;;8.40;90.40;;;;;;4953937;28;20305;-75
2022/02/05 15:25:16;;;;;;;;;;;8.40;90.30;;;;;;4952969;28;19910;-75
2022/02/05 15:27:42;;;;;;;;;;;8.40;90.30;;;;;;4953154;28;20354;-73
2022/02/05 15:30:08;;;;;;;;;;;8.20;90.30;;;;;;4968681;28;20396;-78
2022/02/05 15:32:34;;;;;;;;;;;8.30;90.30;;;;;;4952983;28;19922;-79
2022/02/05 15:35:00;;;;;;;;;;;8.30;90.20;;;;;;4953238;28;19910;-77
2022/02/05 15:37:26;;;;;;;;;;;8.30;90.30;;;;;;4953202;28;19921;-77
2022/02/05 15:40:07;;;;;;;;;;;8.20;90.10;;;;;;4953305;28;19917;-79
2022/02/05 15:45:16;;;;;;;;;;;8.30;90.50;;;;;;4954155;29;19930;-80
2022/02/05 15:47:42;;;;;;;;;;;8.30;90.40;;;;;;4953405;28;19918;-78
2022/02/05 15:50:09;;;;;;;;;;;8.20;90.40;;;;;;4953131;28;20360;-88
2022/02/05 15:52:35;;;;;;;;;;;8.20;90.60;;;;;;4953214;28;19936;-80
2022/02/05 15:55:01;;;;;;;;;;;8.30;90.50;;;;;;4953249;28;19965;-79
2022/02/05 15:57:37;;;;;;;;;;;8.20;90.30;;;;;;4953666;28;19914;-79
2022/02/05 16:00:22;;;;;;;;;;;8.30;90.40;;;;;;4953585;28;19937;-80
2022/02/05 16:02:55;;;;;;;;;;;8.30;90.30;;;;;;4953206;28;19918;-81
2022/02/05 16:05:20;;;;;;;;;;;8.20;90.10;;;;;;4953739;28;19929;-81
2022/02/05 16:07:46;;;;;;;;;;;8.20;90.00;;;;;;4953530;28;20324;-78
2022/02/05 16:10:11;;;;;;;;;;;8.10;89.80;;;;;;4968317;28;20333;-79